Time;durP1;ratioP1;P1;durP2;ratioP2;P2;SDS_P1;SDS_P2;PMS_P1;PMS_P2;Temp;Humidity;BMP_temperature;BMP_pressure;BME280_temperature;BME280_humidity;BME280_pressure;Samples;Min_cycle;Max_cycle;Signal;HPM_P1;HPM_P2
2023/09/23 00:00:13;;;;;;;0.30;0.17;;;14.10;99.90;;;;;;6251790;22;20000;-82
2023/09/23 00:02:40;;;;;;;0.25;0.20;;;14.10;99.90;;;;;;6251088;22;20011;-81
2023/09/23 00:05:09;;;;;;;0.38;0.15;;;14.00;99.90;;;;;;6278569;22;20366;-82
2023/09/23 00:07:35;;;;;;;2.95;0.30;;;14.00;99.90;;;;;;6250846;22;20322;-81
2023/09/23 00:10:08;;;;;;;0.30;0.20;;;14.00;99.90;;;;;;6251270;22;20046;-82
2023/09/23 00:12:37;;;;;;;0.30;0.10;;;14.00;99.90;;;;;;6250906;22;19996;-82
2023/09/23 00:15:07;;;;;;;1.08;0.30;;;14.00;99.90;;;;;;6251125;22;20011;-82
2023/09/23 00:17:33;;;;;;;0.95;0.40;;;14.00;99.90;;;;;;6275205;22;20022;-81
2023/09/23 00:20:00;;;;;;;0.60;0.30;;;13.90;99.90;;;;;;6276972;22;20011;-82
2023/09/23 00:22:26;;;;;;;0.35;0.30;;;13.90;99.90;;;;;;6277825;22;20000;-82
2023/09/23 00:24:54;;;;;;;0.40;0.30;;;13.80;99.90;;;;;;6278203;22;20353;-82
2023/09/23 00:27:21;;;;;;;0.93;0.30;;;13.80;99.90;;;;;;6278401;22;20000;-82
2023/09/23 00:29:47;;;;;;;1.20;0.20;;;13.90;99.90;;;;;;6276295;22;20010;-81
2023/09/23 00:32:13;;;;;;;0.57;0.30;;;13.90;99.90;;;;;;6276906;22;20083;-82
2023/09/23 00:34:40;;;;;;;0.30;0.20;;;13.90;99.90;;;;;;6276607;22;20038;-81
2023/09/23 00:37:08;;;;;;;2.72;0.30;;;13.80;99.90;;;;;;6276692;22;19999;-81
2023/09/23 00:39:42;;;;;;;1.52;0.20;;;13.80;99.90;;;;;;6277755;22;20078;-81
2023/09/23 00:42:12;;;;;;;1.25;0.22;;;13.80;99.90;;;;;;6278256;22;20026;-81
2023/09/23 00:44:41;;;;;;;0.77;0.20;;;13.80;99.90;;;;;;6276389;22;19999;-81
2023/09/23 00:47:09;;;;;;;1.35;0.30;;;13.80;99.90;;;;;;6276509;22;20008;-81
2023/09/23 00:49:37;;;;;;;1.40;0.20;;;13.80;99.90;;;;;;6275995;22;20038;-81
2023/09/23 00:52:06;;;;;;;2.00;0.40;;;13.70;99.90;;;;;;6276703;22;20004;-82
2023/09/23 00:54:35;;;;;;;3.38;0.30;;;13.70;99.90;;;;;;6276185;22;20000;-82
2023/09/23 00:57:02;;;;;;;1.23;0.20;;;13.70;99.90;;;;;;6276709;22;20134;-81
2023/09/23 00:59:29;;;;;;;0.57;0.38;;;13.70;99.90;;;;;;6276432;22;19999;-81
2023/09/23 01:01:56;;;;;;;0.20;0.20;;;13.70;99.90;;;;;;6277130;22;20034;-82
2023/09/23 01:04:22;;;;;;;1.02;0.60;;;13.70;99.90;;;;;;6277043;22;19999;-82
2023/09/23 01:06:48;;;;;;;1.25;0.20;;;13.70;99.90;;;;;;6277644;22;20004;-82
2023/09/23 01:09:19;;;;;;;2.78;0.30;;;13.70;99.90;;;;;;6276722;22;20091;-82
2023/09/23 01:11:45;;;;;;;2.83;0.30;;;13.60;99.90;;;;;;6276132;22;20314;-82
2023/09/23 01:14:11;;;;;;;0.25;0.20;;;13.60;99.90;;;;;;6277739;22;20026;-82
2023/09/23 01:16:37;;;;;;;2.25;0.30;;;13.60;99.90;;;;;;6275634;22;20020;-82
2023/09/23 01:19:03;;;;;;;0.40;0.30;;;13.50;99.90;;;;;;6276477;22;20095;-82
2023/09/23 01:21:28;;;;;;;0.52;0.28;;;13.50;99.90;;;;;;6275891;22;20484;-81
2023/09/23 01:23:54;;;;;;;0.45;0.45;;;13.40;99.90;;;;;;6276485;22;20000;-82
2023/09/23 01:26:20;;;;;;;2.15;0.40;;;13.50;99.90;;;;;;6277679;22;20000;-82
2023/09/23 01:28:48;;;;;;;0.90;0.30;;;13.40;99.90;;;;;;6276024;22;20001;-82
2023/09/23 01:31:13;;;;;;;0.60;0.30;;;13.40;99.90;;;;;;6276376;22;20429;-82
2023/09/23 01:33:39;;;;;;;0.75;0.30;;;13.40;99.90;;;;;;6277168;22;20000;-81
2023/09/23 01:36:05;;;;;;;0.60;0.40;;;13.40;99.90;;;;;;6276721;22;20030;-81
2023/09/23 01:38:32;;;;;;;1.35;0.43;;;13.40;99.90;;;;;;6275557;22;20317;-80
2023/09/23 01:40:58;;;;;;;1.48;0.50;;;13.40;99.90;;;;;;6277556;22;19996;-82
2023/09/23 01:43:25;;;;;;;1.92;0.38;;;13.40;99.90;;;;;;6276454;22;19999;-82
2023/09/23 01:45:52;;;;;;;0.85;0.52;;;13.30;99.90;;;;;;6276349;22;20030;-81
2023/09/23 01:48:22;;;;;;;2.47;0.40;;;13.30;99.90;;;;;;6277555;22;20028;-81
2023/09/23 01:50:48;;;;;;;0.95;0.22;;;13.30;99.90;;;;;;6276739;22;20477;-81
2023/09/23 01:53:19;;;;;;;0.20;0.20;;;13.30;99.90;;;;;;6276203;22;20000;-81
2023/09/23 01:55:45;;;;;;;1.25;0.15;;;13.30;99.90;;;;;;6276985;22;20038;-81
2023/09/23 01:58:10;;;;;;;1.15;0.20;;;13.30;99.90;;;;;;6277547;22;19996;-81
2023/09/23 02:00:38;;;;;;;0.50;0.20;;;13.20;99.90;;;;;;6275629;22;20002;-81
2023/09/23 02:03:03;;;;;;;2.10;0.20;;;13.30;99.90;;;;;;6276152;22;20015;-81
2023/09/23 02:05:29;;;;;;;0.68;0.25;;;13.20;99.90;;;;;;6275402;22;20008;-82
2023/09/23 02:07:55;;;;;;;1.83;0.30;;;13.30;99.90;;;;;;6275347;22;20000;-82
2023/09/23 02:10:24;;;;;;;0.47;0.40;;;13.20;99.90;;;;;;6277243;22;20007;-81
2023/09/23 02:12:50;;;;;;;1.33;0.40;;;13.20;99.90;;;;;;6275352;22;20010;-81
2023/09/23 02:15:16;;;;;;;0.47;0.20;;;13.20;99.90;;;;;;6275981;22;20008;-81
2023/09/23 02:17:46;;;;;;;0.82;0.40;;;13.10;99.90;;;;;;6276532;22;20079;-81
2023/09/23 02:20:19;;;;;;;1.23;0.30;;;13.20;99.90;;;;;;6277360;22;20076;-81
2023/09/23 02:22:55;;;;;;;0.57;0.30;;;13.10;99.90;;;;;;6276823;22;20034;-82
2023/09/23 02:25:24;;;;;;;1.23;0.52;;;13.10;99.90;;;;;;6276530;22;20330;-81
2023/09/23 02:27:51;;;;;;;2.05;0.50;;;13.10;99.90;;;;;;6249933;22;20307;-81
2023/09/23 02:30:17;;;;;;;1.63;0.60;;;13.10;99.90;;;;;;6277085;22;20061;-82
2023/09/23 02:32:44;;;;;;;1.40;0.30;;;13.10;99.90;;;;;;6276512;22;20318;-81
2023/09/23 02:35:12;;;;;;;1.50;0.30;;;13.00;99.90;;;;;;6250563;22;20445;-81
2023/09/23 02:37:39;;;;;;;0.47;0.30;;;13.00;99.90;;;;;;6249619;22;20087;-82
2023/09/23 02:40:06;;;;;;;0.50;0.35;;;12.90;99.90;;;;;;6250467;22;20314;-81
2023/09/23 02:42:32;;;;;;;2.30;0.30;;;13.00;99.90;;;;;;6250059;22;20373;-80
2023/09/23 02:44:58;;;;;;;0.82;0.40;;;13.00;99.90;;;;;;6276331;22;20008;-81
2023/09/23 02:47:23;;;;;;;0.47;0.30;;;13.00;99.90;;;;;;6277141;22;20015;-82
2023/09/23 02:49:49;;;;;;;1.98;0.40;;;13.00;99.90;;;;;;6249511;22;20000;-82
2023/09/23 02:52:15;;;;;;;1.20;0.40;;;12.90;99.90;;;;;;6249883;22;20000;-82
2023/09/23 02:54:40;;;;;;;3.25;0.47;;;12.90;99.90;;;;;;6249741;22;20452;-81
2023/09/23 02:57:08;;;;;;;1.20;0.40;;;12.90;99.90;;;;;;6250138;22;20370;-82
2023/09/23 02:59:41;;;;;;;0.85;0.30;;;13.00;99.90;;;;;;6276657;22;20035;-82
2023/09/23 03:02:08;;;;;;;0.70;0.40;;;13.00;99.90;;;;;;6250531;22;20020;-81
2023/09/23 03:04:34;;;;;;;1.30;0.40;;;13.00;99.90;;;;;;6249966;22;20075;-80
2023/09/23 03:07:01;;;;;;;0.70;0.40;;;13.00;99.90;;;;;;6249158;22;20000;-81
2023/09/23 03:09:32;;;;;;;1.45;0.40;;;13.00;99.90;;;;;;6250187;22;20027;-81
2023/09/23 03:12:00;;;;;;;1.98;0.40;;;13.00;99.90;;;;;;6249496;22;20291;-81
2023/09/23 03:14:51;;;;;;;1.42;0.35;;;13.00;99.90;;;;;;6250018;22;20004;-81
2023/09/23 03:17:21;;;;;;;0.50;0.40;;;13.00;99.90;;;;;;6275910;22;20023;-81
2023/09/23 03:19:50;;;;;;;0.80;0.32;;;13.10;99.90;;;;;;6276274;22;20083;-81
2023/09/23 03:22:20;;;;;;;2.47;0.40;;;13.00;99.90;;;;;;6249905;22;20423;-81
2023/09/23 03:24:48;;;;;;;0.60;0.55;;;13.00;99.90;;;;;;6275966;22;20449;-81
2023/09/23 03:27:14;;;;;;;0.60;0.22;;;13.00;99.90;;;;;;6249585;22;20049;-81
2023/09/23 03:29:40;;;;;;;2.15;0.52;;;13.00;99.90;;;;;;6275980;22;20063;-81
2023/09/23 03:32:06;;;;;;;1.20;0.35;;;13.00;99.90;;;;;;6249713;22;20000;-81
2023/09/23 03:34:32;;;;;;;0.55;0.30;;;13.00;99.90;;;;;;6249656;22;20484;-81
2023/09/23 03:36:58;;;;;;;1.60;0.50;;;13.00;99.90;;;;;;6248991;22;19995;-81
2023/09/23 03:39:25;;;;;;;0.95;0.43;;;13.00;99.90;;;;;;6250057;22;20385;-81
2023/09/23 03:41:50;;;;;;;0.77;0.30;;;13.00;99.90;;;;;;6276068;22;20047;-81
2023/09/23 03:44:16;;;;;;;2.08;0.40;;;13.00;99.90;;;;;;6244438;22;20049;-82
2023/09/23 03:46:50;;;;;;;0.68;0.30;;;13.00;99.90;;;;;;6273426;22;20012;-81
2023/09/23 03:49:17;;;;;;;2.25;0.32;;;13.00;99.90;;;;;;6248247;22;20011;-81
2023/09/23 03:51:43;;;;;;;1.25;0.40;;;13.00;99.90;;;;;;6247666;22;20002;-82
2023/09/23 03:54:09;;;;;;;0.35;0.30;;;13.10;99.90;;;;;;6248511;22;20004;-81
2023/09/23 03:56:35;;;;;;;0.28;0.20;;;13.00;99.90;;;;;;6247768;22;20008;-80
2023/09/23 03:59:06;;;;;;;2.97;0.45;;;13.00;99.90;;;;;;6248677;22;20111;-81
2023/09/23 04:01:36;;;;;;;0.47;0.30;;;13.10;99.90;;;;;;6248603;22;20004;-82
2023/09/23 04:04:03;;;;;;;0.40;0.25;;;13.10;99.90;;;;;;6248345;22;20003;-81
2023/09/23 04:06:30;;;;;;;0.75;0.50;;;13.10;99.90;;;;;;6248441;22;20012;-81
2023/09/23 04:08:59;;;;;;;0.80;0.38;;;13.10;99.90;;;;;;6248341;22;20165;-81
2023/09/23 04:11:26;;;;;;;0.93;0.22;;;13.10;99.90;;;;;;6248611;22;20002;-81
2023/09/23 04:13:52;;;;;;;1.80;0.30;;;13.10;99.90;;;;;;6275933;22;20053;-81
2023/09/23 04:16:19;;;;;;;1.05;0.35;;;13.00;99.90;;;;;;6277048;22;20488;-81
2023/09/23 04:18:46;;;;;;;0.63;0.40;;;12.90;99.90;;;;;;6250047;22;20007;-81
2023/09/23 04:21:12;;;;;;;0.77;0.47;;;12.90;99.90;;;;;;6250095;22;20072;-81
2023/09/23 04:23:39;;;;;;;2.22;0.50;;;12.90;99.90;;;;;;6276624;22;20474;-80
2023/09/23 04:26:05;;;;;;;0.88;0.40;;;12.90;99.90;;;;;;6250081;22;20015;-81
2023/09/23 04:28:31;;;;;;;0.32;0.20;;;12.90;99.90;;;;;;6250677;22;20360;-81
2023/09/23 04:30:57;;;;;;;0.57;0.40;;;12.80;99.90;;;;;;6276672;22;20003;-81
2023/09/23 04:33:27;;;;;;;1.63;0.38;;;12.80;99.90;;;;;;6250327;22;20026;-82
2023/09/23 04:35:57;;;;;;;0.73;0.40;;;12.80;99.90;;;;;;6276399;22;19995;-81
2023/09/23 04:38:26;;;;;;;0.75;0.25;;;12.80;99.90;;;;;;6250284;22;20000;-82
2023/09/23 04:40:52;;;;;;;0.73;0.40;;;12.70;99.90;;;;;;6249470;22;20326;-82
2023/09/23 04:43:19;;;;;;;1.10;0.25;;;12.70;99.90;;;;;;6250272;22;19999;-82
2023/09/23 04:45:45;;;;;;;1.02;0.30;;;12.70;99.90;;;;;;6248443;22;20023;-82
2023/09/23 04:48:11;;;;;;;1.10;0.47;;;12.70;99.90;;;;;;6249841;22;20032;-82
2023/09/23 04:50:38;;;;;;;0.70;0.40;;;12.60;99.90;;;;;;6250299;22;19999;-81
2023/09/23 04:53:04;;;;;;;0.90;0.60;;;12.70;99.90;;;;;;6250113;22;20006;-81
2023/09/23 04:55:29;;;;;;;2.83;0.40;;;12.70;99.90;;;;;;6250057;22;20004;-81
2023/09/23 04:57:55;;;;;;;1.30;0.50;;;12.70;99.90;;;;;;6249014;22;20040;-81
2023/09/23 05:00:21;;;;;;;3.03;0.52;;;12.70;99.90;;;;;;6249885;22;20030;-82
2023/09/23 05:02:51;;;;;;;1.83;0.40;;;12.70;99.90;;;;;;6249497;22;19999;-81
2023/09/23 05:05:17;;;;;;;2.20;0.55;;;12.70;99.90;;;;;;6250150;22;20014;-82
2023/09/23 05:07:43;;;;;;;0.55;0.40;;;12.70;99.90;;;;;;6248943;22;20357;-81
2023/09/23 05:10:12;;;;;;;1.52;0.65;;;12.70;99.90;;;;;;6250157;22;20057;-81
2023/09/23 05:12:39;;;;;;;1.17;0.45;;;12.70;99.90;;;;;;6276713;22;20000;-81
2023/09/23 05:15:09;;;;;;;1.77;0.50;;;12.70;99.90;;;;;;6276662;22;20049;-81
2023/09/23 05:17:36;;;;;;;0.60;0.40;;;12.70;99.90;;;;;;6274577;22;20019;-82
2023/09/23 05:20:10;;;;;;;2.80;0.52;;;12.70;99.90;;;;;;6274749;22;20003;-81
2023/09/23 05:22:35;;;;;;;1.58;0.57;;;12.60;99.90;;;;;;6275436;22;20000;-82
2023/09/23 05:25:05;;;;;;;2.05;0.50;;;12.60;99.90;;;;;;6274608;22;20039;-81
2023/09/23 05:27:32;;;;;;;0.85;0.40;;;12.50;99.90;;;;;;6276709;22;20027;-82
2023/09/23 05:29:57;;;;;;;1.63;0.55;;;12.50;99.90;;;;;;6274950;22;20083;-82
2023/09/23 05:32:23;;;;;;;1.45;0.40;;;12.50;99.90;;;;;;6276868;22;20027;-82
2023/09/23 05:34:52;;;;;;;0.98;0.50;;;12.50;99.90;;;;;;6276344;22;20000;-82
2023/09/23 05:37:18;;;;;;;1.55;0.73;;;12.40;99.90;;;;;;6275230;22;20014;-81
2023/09/23 05:39:45;;;;;;;1.88;0.32;;;12.40;99.90;;;;;;6275778;22;20067;-81
2023/09/23 05:42:13;;;;;;;1.48;0.40;;;12.40;99.90;;;;;;6276651;22;19999;-81
2023/09/23 05:44:40;;;;;;;1.98;0.55;;;12.50;99.90;;;;;;6274446;22;20390;-81
2023/09/23 05:47:06;;;;;;;1.33;1.13;;;12.40;99.90;;;;;;6273746;22;20003;-81
2023/09/23 05:49:32;;;;;;;3.22;0.50;;;12.50;99.90;;;;;;6275620;22;20369;-81
2023/09/23 05:51:57;;;;;;;1.75;0.47;;;12.50;99.90;;;;;;6275713;22;20003;-82
2023/09/23 05:54:23;;;;;;;0.98;0.57;;;12.50;99.90;;;;;;6275117;22;20004;-81
2023/09/23 05:56:49;;;;;;;1.08;0.63;;;12.50;99.90;;;;;;6274150;22;20007;-80
2023/09/23 05:59:15;;;;;;;0.68;0.47;;;12.50;99.90;;;;;;6274627;22;20083;-81
2023/09/23 06:01:41;;;;;;;1.10;0.50;;;12.50;99.90;;;;;;6275721;22;20007;-81
2023/09/23 06:04:09;;;;;;;2.42;0.60;;;12.50;99.90;;;;;;6274931;22;20318;-81
2023/09/23 06:06:38;;;;;;;1.08;0.50;;;12.60;99.90;;;;;;6274673;22;20457;-81
2023/09/23 06:09:07;;;;;;;0.60;0.40;;;12.60;99.90;;;;;;6274022;22;20105;-80
2023/09/23 06:11:34;;;;;;;1.25;0.68;;;12.60;99.90;;;;;;6276197;22;19992;-81
2023/09/23 06:14:00;;;;;;;1.15;0.75;;;12.60;99.90;;;;;;6273711;22;20035;-81
2023/09/23 06:16:26;;;;;;;0.50;0.40;;;12.60;99.90;;;;;;6273970;22;20393;-81
2023/09/23 06:18:51;;;;;;;1.00;0.40;;;12.70;99.90;;;;;;6275838;22;19992;-81
2023/09/23 06:21:17;;;;;;;1.13;0.50;;;12.70;99.90;;;;;;6274635;22;20023;-81
2023/09/23 06:23:44;;;;;;;2.10;0.73;;;12.70;99.90;;;;;;6274224;22;20003;-80
2023/09/23 06:26:10;;;;;;;2.10;0.47;;;12.80;99.90;;;;;;6274598;22;20340;-80
2023/09/23 06:28:36;;;;;;;1.70;0.50;;;12.80;99.90;;;;;;6274919;22;20010;-80
2023/09/23 06:31:03;;;;;;;2.42;0.60;;;12.80;99.90;;;;;;6275617;22;19996;-81
2023/09/23 06:33:29;;;;;;;4.10;0.80;;;12.80;99.90;;;;;;6274794;22;20050;-82
2023/09/23 06:35:55;;;;;;;1.58;0.55;;;12.80;99.90;;;;;;6274791;22;20030;-80
2023/09/23 06:38:21;;;;;;;2.75;0.50;;;12.80;99.90;;;;;;6273737;22;20000;-81
2023/09/23 06:40:47;;;;;;;2.90;0.60;;;12.80;99.90;;;;;;6274941;22;19996;-81
2023/09/23 06:43:13;;;;;;;0.98;0.50;;;12.90;99.90;;;;;;6274471;22;20003;-80
2023/09/23 06:45:39;;;;;;;1.15;0.50;;;13.00;99.90;;;;;;6273908;22;20020;-79
2023/09/23 06:48:05;;;;;;;3.05;0.77;;;13.00;99.90;;;;;;6273447;22;20006;-81
2023/09/23 06:50:31;;;;;;;1.85;0.50;;;13.00;99.90;;;;;;6275883;22;20356;-81
2023/09/23 06:52:57;;;;;;;1.52;0.60;;;13.00;99.90;;;;;;6273995;22;20004;-81
2023/09/23 06:55:23;;;;;;;3.55;1.02;;;13.00;99.90;;;;;;6274349;22;20008;-81
2023/09/23 06:57:49;;;;;;;2.53;0.80;;;13.00;99.90;;;;;;6274760;22;20023;-81
2023/09/23 07:00:16;;;;;;;2.92;1.02;;;13.10;99.90;;;;;;6274245;22;20003;-82
2023/09/23 07:02:42;;;;;;;3.05;0.90;;;13.10;99.90;;;;;;6275511;22;19996;-81
2023/09/23 07:05:09;;;;;;;2.58;0.82;;;13.10;99.90;;;;;;6274093;22;20462;-82
2023/09/23 07:07:35;;;;;;;1.35;0.55;;;13.10;99.90;;;;;;6274707;22;20361;-83
2023/09/23 07:10:02;;;;;;;0.95;0.60;;;13.10;99.90;;;;;;6273714;22;20026;-83
2023/09/23 07:12:29;;;;;;;1.40;0.60;;;13.20;99.90;;;;;;6273938;22;20394;-82
2023/09/23 07:14:55;;;;;;;3.28;0.70;;;13.20;99.90;;;;;;6273291;22;20007;-83
2023/09/23 07:17:21;;;;;;;2.13;0.70;;;13.20;99.90;;;;;;6276952;22;20016;-81
2023/09/23 07:19:47;;;;;;;5.72;1.08;;;13.30;99.90;;;;;;6249001;22;20000;-82
2023/09/23 07:22:13;;;;;;;2.70;0.55;;;13.30;99.90;;;;;;6276556;22;20003;-84
2023/09/23 07:24:39;;;;;;;0.77;0.50;;;13.30;99.90;;;;;;6249317;22;20007;-81
2023/09/23 07:27:06;;;;;;;2.75;0.50;;;13.40;99.90;;;;;;6276385;22;20023;-84
2023/09/23 07:29:33;;;;;;;1.08;0.50;;;13.40;99.90;;;;;;6276797;22;20110;-84
2023/09/23 07:32:01;;;;;;;3.08;0.65;;;13.50;99.90;;;;;;6271115;22;19991;-84
2023/09/23 07:34:27;;;;;;;2.50;0.60;;;13.50;99.90;;;;;;6246729;22;20096;-83
2023/09/23 07:36:53;;;;;;;0.60;0.40;;;13.50;99.90;;;;;;6247439;22;20010;-84
2023/09/23 07:39:19;;;;;;;5.63;0.90;;;13.50;99.90;;;;;;6275536;22;20027;-82
2023/09/23 07:41:45;;;;;;;3.17;0.77;;;13.60;99.90;;;;;;6248133;22;20091;-83
2023/09/23 07:44:11;;;;;;;2.63;0.68;;;13.60;99.90;;;;;;6275553;22;20433;-85
2023/09/23 07:46:37;;;;;;;2.30;1.02;;;13.70;99.90;;;;;;6247987;22;20054;-85
2023/09/23 07:49:04;;;;;;;2.70;0.45;;;13.70;99.90;;;;;;6248905;22;20019;-83
2023/09/23 07:51:30;;;;;;;2.00;0.70;;;13.80;99.90;;;;;;6250114;22;20003;-83
2023/09/23 07:53:56;;;;;;;1.50;0.28;;;13.80;99.90;;;;;;6249671;22;20050;-84
2023/09/23 07:56:22;;;;;;;1.05;0.30;;;13.90;99.90;;;;;;6250326;22;20003;-82
2023/09/23 07:58:48;;;;;;;2.60;0.80;;;13.90;99.90;;;;;;6275557;22;19992;-82
2023/09/23 08:01:14;;;;;;;1.70;0.40;;;13.90;99.90;;;;;;6275790;22;20355;-82
2023/09/23 08:03:40;;;;;;;0.70;0.65;;;14.00;99.90;;;;;;6239847;22;20007;-81
2023/09/23 08:06:06;;;;;;;3.00;0.60;;;14.00;99.90;;;;;;6250378;22;20398;-81
2023/09/23 08:08:32;;;;;;;0.73;0.40;;;14.10;99.90;;;;;;6249860;22;19996;-82
2023/09/23 08:10:58;;;;;;;0.70;0.50;;;14.10;99.90;;;;;;6249838;22;20007;-82
2023/09/23 08:13:26;;;;;;;2.03;0.52;;;14.20;99.90;;;;;;6249308;22;20418;-83
2023/09/23 08:15:57;;;;;;;1.38;0.60;;;14.30;99.90;;;;;;6276094;22;20022;-82
2023/09/23 08:18:23;;;;;;;3.80;0.52;;;14.30;99.90;;;;;;6250198;22;19999;-83
2023/09/23 08:20:56;;;;;;;1.30;0.50;;;14.30;99.90;;;;;;6249460;22;20035;-85
2023/09/23 08:23:22;;;;;;;1.30;0.40;;;14.40;99.90;;;;;;6250056;22;20006;-81
2023/09/23 08:25:49;;;;;;;1.63;0.50;;;14.50;99.90;;;;;;6249686;22;20003;-82
2023/09/23 08:28:15;;;;;;;4.93;0.68;;;14.50;99.90;;;;;;6250082;22;20311;-86
2023/09/23 08:30:44;;;;;;;0.60;0.50;;;14.60;99.90;;;;;;6250045;22;20082;-84
2023/09/23 08:33:12;;;;;;;1.45;0.28;;;14.60;99.90;;;;;;6249947;22;20418;-83
2023/09/23 08:35:41;;;;;;;1.73;0.60;;;14.60;99.90;;;;;;6250329;22;20031;-84
2023/09/23 08:38:08;;;;;;;2.17;0.60;;;14.70;99.90;;;;;;6276564;22;20000;-81
2023/09/23 08:40:36;;;;;;;0.90;0.32;;;14.70;99.90;;;;;;6249542;22;20058;-81
2023/09/23 08:43:05;;;;;;;0.75;0.47;;;14.80;99.90;;;;;;6248896;22;20004;-82
2023/09/23 08:45:31;;;;;;;0.95;0.40;;;14.80;99.90;;;;;;6276347;22;20016;-83
2023/09/23 08:47:58;;;;;;;4.95;2.85;;;14.90;99.90;;;;;;6249584;22;20010;-86
2023/09/23 08:50:25;;;;;;;2.05;0.50;;;14.90;99.90;;;;;;6249527;22;20053;-86
2023/09/23 08:52:56;;;;;;;1.77;0.52;;;15.00;99.90;;;;;;6249184;22;20083;-84
2023/09/23 08:55:24;;;;;;;7.57;0.50;;;15.00;99.90;;;;;;6276628;22;20003;-82
2023/09/23 08:57:50;;;;;;;1.42;0.50;;;15.00;99.90;;;;;;6248906;22;19996;-80
2023/09/23 09:00:18;;;;;;;5.13;0.60;;;15.10;99.90;;;;;;6275851;22;20415;-80
2023/09/23 09:02:44;;;;;;;1.50;0.40;;;15.10;99.90;;;;;;6272811;22;20303;-81
2023/09/23 09:05:10;;;;;;;2.20;0.80;;;15.10;99.90;;;;;;6249029;22;20007;-81
2023/09/23 09:07:37;;;;;;;1.73;0.40;;;15.10;99.90;;;;;;6276667;22;20018;-81
2023/09/23 09:10:05;;;;;;;1.30;0.47;;;15.10;99.90;;;;;;6275868;22;20022;-81
2023/09/23 09:12:35;;;;;;;1.08;0.50;;;15.20;99.90;;;;;;6275737;22;20067;-80
2023/09/23 09:15:01;;;;;;;4.63;0.68;;;15.30;99.90;;;;;;6248853;22;20003;-81
2023/09/23 09:17:27;;;;;;;3.33;0.75;;;15.30;99.90;;;;;;6272146;22;20016;-82
2023/09/23 09:19:53;;;;;;;5.28;0.63;;;15.40;99.90;;;;;;6274378;22;19996;-80
2023/09/23 09:22:20;;;;;;;2.20;0.28;;;15.40;99.90;;;;;;6276507;22;20000;-80
2023/09/23 09:24:49;;;;;;;2.28;0.40;;;15.40;99.90;;;;;;6273984;22;20002;-80
2023/09/23 09:27:15;;;;;;;2.97;0.40;;;15.50;99.90;;;;;;6274928;22;19937;-80
2023/09/23 09:29:42;;;;;;;2.15;0.40;;;15.60;99.90;;;;;;6274487;22;20426;-79
2023/09/23 09:32:13;;;;;;;1.67;0.50;;;15.60;99.90;;;;;;6276288;22;20000;-80
2023/09/23 09:34:46;;;;;;;1.90;0.43;;;15.60;99.90;;;;;;6271685;22;20007;-81
2023/09/23 09:37:14;;;;;;;2.03;0.50;;;15.70;99.90;;;;;;6272698;22;20014;-80
2023/09/23 09:39:57;;;;;;;1.55;0.50;;;15.70;99.90;;;;;;6273088;22;20057;-80
2023/09/23 09:42:36;;;;;;;0.50;0.50;;;15.70;99.90;;;;;;6273671;22;20007;-81
2023/09/23 09:45:07;;;;;;;2.55;0.47;;;15.80;99.90;;;;;;6274647;22;20414;-79
2023/09/23 09:47:34;;;;;;;1.60;0.43;;;15.80;99.90;;;;;;6276607;22;20020;-82
2023/09/23 09:50:04;;;;;;;3.28;0.90;;;15.80;99.90;;;;;;6274757;22;20008;-83
2023/09/23 09:52:32;;;;;;;2.53;0.40;;;15.90;99.90;;;;;;6275695;22;20008;-84
2023/09/23 09:55:00;;;;;;;1.20;0.52;;;16.00;99.90;;;;;;6274421;22;19999;-86
2023/09/23 09:57:28;;;;;;;0.60;0.30;;;16.00;99.90;;;;;;6275364;22;20090;-82
2023/09/23 10:00:27;;;;;;;5.32;0.40;;;16.00;99.90;;;;;;6269034;22;19999;-80
2023/09/23 10:03:01;;;;;;;1.65;0.47;;;16.10;99.90;;;;;;6273061;22;20007;-80
2023/09/23 10:05:50;;;;;;;2.13;0.55;;;16.20;99.90;;;;;;6274936;22;20011;-79
2023/09/23 10:08:24;;;;;;;1.38;0.40;;;16.20;99.90;;;;;;6276186;22;20004;-80
2023/09/23 10:11:02;;;;;;;1.92;0.70;;;16.30;99.90;;;;;;6272450;22;20008;-79
2023/09/23 10:13:31;;;;;;;3.70;0.68;;;16.40;99.90;;;;;;6280723;22;20300;-85
2023/09/23 10:16:17;;;;;;;2.60;0.60;;;16.40;99.90;;;;;;6275173;22;20043;-89
2023/09/23 10:18:44;;;;;;;1.05;0.50;;;16.50;99.90;;;;;;6276339;22;20472;-86
2023/09/23 10:21:29;;;;;;;1.88;0.40;;;16.50;99.90;;;;;;6250315;22;20008;-92
2023/09/23 10:23:56;;;;;;;2.42;0.52;;;16.60;99.90;;;;;;6249211;22;20391;-91
2023/09/23 10:26:25;;;;;;;1.75;0.55;;;16.60;99.90;;;;;;6250296;22;20346;-85
2023/09/23 10:28:58;;;;;;;1.48;0.40;;;16.50;99.90;;;;;;6275500;22;20000;-85
2023/09/23 10:31:28;;;;;;;0.88;0.30;;;16.70;99.90;;;;;;6276187;22;20000;-87
2023/09/23 10:33:56;;;;;;;10.25;0.63;;;16.80;99.90;;;;;;6275453;22;19996;-87
2023/09/23 10:36:22;;;;;;;3.75;1.27;;;16.90;99.90;;;;;;6249278;22;20373;-82
2023/09/23 10:38:49;;;;;;;2.42;0.90;;;17.10;99.90;;;;;;6273745;22;19999;-82
2023/09/23 10:41:16;;;;;;;4.53;0.90;;;17.10;99.90;;;;;;6248107;22;20050;-82
2023/09/23 10:43:42;;;;;;;2.05;0.65;;;17.00;99.90;;;;;;6274485;22;20003;-79
2023/09/23 10:46:08;;;;;;;2.50;0.40;;;17.00;99.90;;;;;;6248102;22;20020;-80
2023/09/23 10:48:37;;;;;;;1.27;0.50;;;17.00;99.90;;;;;;6248291;22;20003;-80
2023/09/23 10:51:05;;;;;;;1.42;0.40;;;17.00;99.90;;;;;;6247299;22;20479;-84
2023/09/23 10:53:32;;;;;;;3.10;0.40;;;17.00;99.90;;;;;;6275133;22;19999;-80
2023/09/23 10:55:58;;;;;;;0.85;0.50;;;17.00;99.90;;;;;;6247818;22;20441;-83
2023/09/23 10:58:25;;;;;;;1.20;0.30;;;17.10;99.90;;;;;;6274651;22;19995;-82
2023/09/23 11:00:52;;;;;;;0.80;0.25;;;17.10;99.90;;;;;;6274100;22;20000;-82
2023/09/23 11:03:19;;;;;;;2.03;0.30;;;17.10;99.90;;;;;;6247514;22;20420;-78
2023/09/23 11:05:47;;;;;;;1.83;0.35;;;17.10;99.90;;;;;;6247057;22;20041;-80
2023/09/23 11:08:14;;;;;;;0.75;0.30;;;17.10;99.90;;;;;;6246314;22;20096;-83
2023/09/23 11:10:42;;;;;;;1.17;0.65;;;17.10;99.90;;;;;;6247818;22;20054;-81
2023/09/23 11:13:10;;;;;;;1.23;0.40;;;17.10;99.90;;;;;;6247998;22;20011;-83
2023/09/23 11:15:41;;;;;;;1.23;0.40;;;17.10;99.90;;;;;;6247863;22;20019;-83
2023/09/23 11:18:11;;;;;;;0.95;0.43;;;17.10;99.90;;;;;;6270831;22;20030;-84
2023/09/23 11:20:42;;;;;;;1.00;0.40;;;17.20;99.90;;;;;;6248658;22;20000;-87
2023/09/23 11:23:10;;;;;;;0.98;0.40;;;17.20;99.90;;;;;;6250135;22;20026;-83
2023/09/23 11:25:44;;;;;;;1.65;0.40;;;17.30;99.90;;;;;;6249966;22;20015;-83
2023/09/23 11:28:22;;;;;;;1.23;0.50;;;17.30;99.90;;;;;;6249966;22;20426;-83
2023/09/23 11:30:53;;;;;;;1.23;0.40;;;17.40;99.90;;;;;;6250012;22;20011;-84
2023/09/23 11:33:21;;;;;;;1.00;0.40;;;17.40;99.90;;;;;;6251046;22;20007;-86
2023/09/23 11:35:47;;;;;;;2.47;0.45;;;17.50;99.90;;;;;;6277211;22;20000;-85
2023/09/23 11:38:14;;;;;;;1.63;0.38;;;17.50;99.90;;;;;;6250543;22;20008;-85
2023/09/23 11:40:40;;;;;;;4.13;0.60;;;17.60;99.90;;;;;;6250702;22;20015;-83
2023/09/23 11:43:07;;;;;;;3.47;0.40;;;17.60;99.90;;;;;;6249835;22;20011;-84
2023/09/23 11:45:33;;;;;;;1.50;0.52;;;17.80;99.90;;;;;;6249033;22;20468;-83
2023/09/23 11:48:00;;;;;;;3.60;0.40;;;18.10;99.90;;;;;;6248951;22;20086;-85
2023/09/23 11:50:29;;;;;;;1.65;0.60;;;18.20;99.70;;;;;;6250199;22;20049;-83
2023/09/23 11:52:56;;;;;;;1.80;0.50;;;18.40;99.30;;;;;;6249613;22;20000;-88
2023/09/23 11:55:22;;;;;;;2.35;0.40;;;18.40;99.30;;;;;;6250199;22;20007;-84
2023/09/23 11:57:49;;;;;;;3.05;0.45;;;18.60;98.40;;;;;;6250422;22;20007;-85
2023/09/23 12:00:16;;;;;;;1.67;0.32;;;18.70;98.20;;;;;;6276892;22;20000;-81
2023/09/23 12:02:42;;;;;;;2.35;0.40;;;18.70;97.90;;;;;;6249308;22;20065;-81
2023/09/23 12:05:11;;;;;;;2.08;0.60;;;18.70;98.50;;;;;;6249222;22;20012;-78
2023/09/23 12:07:37;;;;;;;2.28;0.40;;;18.80;98.10;;;;;;6249505;22;20037;-81
2023/09/23 12:10:07;;;;;;;1.75;0.22;;;18.90;98.90;;;;;;6249615;22;19999;-80
2023/09/23 12:12:33;;;;;;;1.17;0.30;;;19.00;98.10;;;;;;6250122;22;20011;-80
2023/09/23 12:15:04;;;;;;;3.20;1.00;;;19.00;98.20;;;;;;6250253;22;20449;-80
2023/09/23 12:17:30;;;;;;;1.98;0.57;;;19.20;97.40;;;;;;6273286;22;20024;-80
2023/09/23 12:19:56;;;;;;;1.05;0.50;;;19.30;96.90;;;;;;6276512;22;20004;-80
2023/09/23 12:22:22;;;;;;;2.10;0.47;;;19.30;96.60;;;;;;6274711;22;20083;-80
2023/09/23 12:24:49;;;;;;;2.22;0.30;;;19.20;97.00;;;;;;6274401;22;20007;-79
2023/09/23 12:27:15;;;;;;;3.03;0.30;;;19.20;97.30;;;;;;6274828;22;20121;-79
2023/09/23 12:29:41;;;;;;;1.73;0.40;;;19.30;97.20;;;;;;6272499;22;20075;-80
2023/09/23 12:32:07;;;;;;;2.05;0.40;;;19.20;97.10;;;;;;6275449;22;19996;-80
2023/09/23 12:34:33;;;;;;;1.35;0.30;;;19.30;97.30;;;;;;6275602;22;20000;-80
2023/09/23 12:36:59;;;;;;;2.22;0.40;;;19.30;97.30;;;;;;6275373;22;20369;-80
2023/09/23 12:39:25;;;;;;;4.22;0.40;;;19.20;97.00;;;;;;6274476;22;20074;-80
2023/09/23 12:41:51;;;;;;;2.35;0.50;;;19.10;97.20;;;;;;6275345;22;20000;-80
2023/09/23 12:44:18;;;;;;;0.95;0.30;;;19.10;97.10;;;;;;6274572;22;20137;-80
2023/09/23 12:46:44;;;;;;;1.67;0.40;;;19.10;97.30;;;;;;6275693;22;20453;-80
2023/09/23 12:49:11;;;;;;;2.92;0.60;;;19.30;97.50;;;;;;6274917;22;20091;-80